createdAt,value
2023-03-26T00:03:41.430Z,13.20
2023-03-26T00:14:05.424Z,13.00
2023-03-26T00:24:29.664Z,13.20
2023-03-26T00:34:54.243Z,13.00
2023-03-26T00:45:17.199Z,13.00
2023-03-26T00:55:40.372Z,12.90
2023-03-26T01:06:04.968Z,13.10
2023-03-26T01:16:30.774Z,13.20
2023-03-26T01:27:12.566Z,13.00
2023-03-26T01:37:41.571Z,12.70
2023-03-26T01:48:06.198Z,12.50
2023-03-26T01:58:34.986Z,12.40
2023-03-26T02:09:01.946Z,12.60
2023-03-26T02:19:24.619Z,12.10
2023-03-26T02:29:50.196Z,12.70
2023-03-26T02:40:16.027Z,12.10
2023-03-26T02:50:41.496Z,12.50
2023-03-26T03:01:35.045Z,12.70
2023-03-26T03:11:58.370Z,12.80
2023-03-26T03:22:20.284Z,12.90
2023-03-26T03:32:46.014Z,12.90
2023-03-26T03:43:10.780Z,12.80
2023-03-26T03:53:46.078Z,12.90
2023-03-26T04:04:08.713Z,13.00
2023-03-26T04:15:04.626Z,13.00
2023-03-26T04:25:30.427Z,13.00
2023-03-26T04:36:05.243Z,12.90
2023-03-26T04:46:33.371Z,12.80
2023-03-26T04:57:07.095Z,13.00
2023-03-26T05:07:51.608Z,12.90
2023-03-26T05:18:16.616Z,13.00
2023-03-26T05:28:43.437Z,12.90
2023-03-26T05:39:14.211Z,13.00
2023-03-26T05:49:59.174Z,13.00
2023-03-26T06:00:24.185Z,13.00
2023-03-26T06:10:48.525Z,13.00
2023-03-26T06:21:11.648Z,13.50
2023-03-26T06:31:44.674Z,13.60
2023-03-26T06:42:12.615Z,13.60
2023-03-26T06:53:01.040Z,13.20
2023-03-26T07:03:32.917Z,13.80
2023-03-26T07:14:13.121Z,14.00
2023-03-26T07:24:46.762Z,14.40
2023-03-26T07:35:42.578Z,14.10
2023-03-26T07:46:33.942Z,14.70
2023-03-26T07:57:33.877Z,14.30
2023-03-26T08:08:20.757Z,14.10
2023-03-26T08:19:16.670Z,14.10
2023-03-26T08:29:45.193Z,13.70
2023-03-26T08:40:07.741Z,14.00
2023-03-26T08:50:59.497Z,13.90
2023-03-26T09:01:45.444Z,14.40
2023-03-26T09:12:49.589Z,14.20
2023-03-26T09:23:34.064Z,14.00
2023-03-26T09:33:59.927Z,14.20
2023-03-26T09:45:17.414Z,14.90
2023-03-26T09:55:51.966Z,15.10
2023-03-26T10:06:24.575Z,15.10
2023-03-26T10:17:01.350Z,15.10
2023-03-26T10:27:35.930Z,15.00
2023-03-26T10:38:08.255Z,15.00
2023-03-26T10:48:51.652Z,14.70
2023-03-26T10:59:15.756Z,15.50
2023-03-26T11:09:50.898Z,15.60
2023-03-26T11:20:19.179Z,15.10
2023-03-26T11:30:49.552Z,15.10
2023-03-26T11:41:13.738Z,15.90
2023-03-26T11:51:48.572Z,15.60
2023-03-26T12:02:23.776Z,16.00
2023-03-26T12:12:47.965Z,16.70
2023-03-26T12:23:46.410Z,16.40
2023-03-26T12:34:14.612Z,15.90
2023-03-26T12:44:58.833Z,15.80
2023-03-26T12:55:39.604Z,16.40
2023-03-26T13:06:16.708Z,16.30
2023-03-26T13:16:43.552Z,16.40
2023-03-26T13:27:19.653Z,16.30
2023-03-26T13:37:49.906Z,16.40
2023-03-26T13:48:19.703Z,16.30
2023-03-26T13:58:46.194Z,17.50
2023-03-26T14:09:16.617Z,16.80
2023-03-26T14:20:05.218Z,16.70
2023-03-26T14:30:56.434Z,16.60
2023-03-26T14:41:25.047Z,17.30
2023-03-26T14:52:04.998Z,16.80
2023-03-26T15:03:07.409Z,16.70
2023-03-26T15:13:56.937Z,16.50
2023-03-26T15:25:06.833Z,16.50
2023-03-26T15:36:08.958Z,16.60
2023-03-26T15:46:35.876Z,16.50
2023-03-26T15:57:10.351Z,16.30
2023-03-26T16:07:58.814Z,16.20
2023-03-26T16:18:29.018Z,15.90
2023-03-26T16:29:19.368Z,15.70
2023-03-26T16:39:44.617Z,15.50
2023-03-26T16:50:18.703Z,15.30
2023-03-26T17:00:52.479Z,15.10
2023-03-26T17:11:25.854Z,14.90
2023-03-26T17:21:56.598Z,14.80
2023-03-26T17:32:21.449Z,15.30
2023-03-26T17:43:02.401Z,14.60
2023-03-26T17:53:29.410Z,14.50
2023-03-26T18:03:55.545Z,14.60
2023-03-26T18:14:23.431Z,14.40
2023-03-26T18:24:47.497Z,14.50
2023-03-26T18:35:20.180Z,14.50
2023-03-26T18:45:45.757Z,14.30
2023-03-26T18:56:21.045Z,14.20
2023-03-26T19:06:46.136Z,14.20
2023-03-26T19:17:08.301Z,14.10
2023-03-26T19:27:31.555Z,13.90
2023-03-26T19:37:55.066Z,13.50
2023-03-26T19:48:20.391Z,13.40
2023-03-26T19:59:06.711Z,13.30
2023-03-26T20:09:35.372Z,13.10
2023-03-26T20:19:57.048Z,12.90
2023-03-26T20:30:36.410Z,13.30
2023-03-26T20:40:59.533Z,12.50
2023-03-26T20:51:22.666Z,12.20
2023-03-26T21:01:44.229Z,12.50
2023-03-26T21:12:09.840Z,11.70
2023-03-26T21:22:35.764Z,11.60
2023-03-26T21:32:59.578Z,11.50
2023-03-26T21:43:22.947Z,11.40
2023-03-26T21:53:46.953Z,11.30
2023-03-26T22:04:14.677Z,11.30
2023-03-26T22:14:38.067Z,11.10
2023-03-26T22:24:59.474Z,11.00
2023-03-26T22:35:22.925Z,10.80
2023-03-26T22:45:50.593Z,10.70
2023-03-26T22:56:14.297Z,10.60
2023-03-26T23:06:35.994Z,10.50
2023-03-26T23:16:58.856Z,10.30
2023-03-26T23:27:22.597Z,10.20
2023-03-26T23:37:46.009Z,10.10
2023-03-26T23:48:08.206Z,10.00
2023-03-26T23:58:31.567Z,10.00
